Lorient South Brittany (Bretagne Sud) Airport

Airport
ICAO code: 
LFRH
IATA Code: 
LRT
Summary
ICAO Region: 
EUR
Territory: 
Location: 
Ploemeur, Bretagne
Serving: 
Morbihan
Elevation: 
160 ft
Coordinates: 
Aerial View: 
47° 45' 37.998" N, 3° 26' 24" W
Metar
Observation
LFRH 302030Z AUTO 24019KT 9999 OVC019 11/08 Q1016 BECMG 25020G30KT 4500 -RA BKN008 OVC015
Station
Lann Bihoue
Date/Time
2021-11-30 20:30:00
Wind direction
240°
Wind speed
19 kts
Lowest cloud amount
overcast
Temperature
11°C
Dew point
8°C
Humidity
81%
QNH
1016 hPa
Weather condition
n/a

Runways

Designator Length Width Surface Rops
2/20 1670 45 CON Yes/Yes
7/25 2403 45 CON Yes/Yes
Airport map: 
Aerial View: 

Accidents and Serious Incidents at or in the vicinity of LFRH

SKYbrary Partners:

Safety knowledge contributed by: